sensor_id;sensor_type;location;lat;lon;timestamp;pressure;altitude;pressure_sealevel;temperature;humidity
20630;BME280;17386;43.846;25.950;2023-03-20T00:00:41;101665.94;;;7.52;100.00
20630;BME280;17386;43.846;25.950;2023-03-20T00:03:11;101663.34;;;7.49;100.00
20630;BME280;17386;43.846;25.950;2023-03-20T00:05:37;101666.84;;;7.49;100.00
20630;BME280;17386;43.846;25.950;2023-03-20T00:08:03;101669.50;;;7.49;100.00
20630;BME280;17386;43.846;25.950;2023-03-20T00:10:33;101675.66;;;7.50;100.00
20630;BME280;17386;43.846;25.950;2023-03-20T00:13:00;101659.88;;;7.37;100.00
20630;BME280;17386;43.846;25.950;2023-03-20T00:15:29;101668.75;;;7.30;100.00
20630;BME280;17386;43.846;25.950;2023-03-20T00:17:55;101665.25;;;7.25;100.00
20630;BME280;17386;43.846;25.950;2023-03-20T00:20:21;101670.53;;;7.25;100.00
20630;BME280;17386;43.846;25.950;2023-03-20T00:22:47;101651.19;;;7.23;100.00
20630;BME280;17386;43.846;25.950;2023-03-20T00:25:18;101649.44;;;7.19;100.00
20630;BME280;17386;43.846;25.950;2023-03-20T00:27:44;101640.63;;;7.19;100.00
20630;BME280;17386;43.846;25.950;2023-03-20T00:30:20;101639.72;;;7.24;100.00
20630;BME280;17386;43.846;25.950;2023-03-20T00:32:48;101638.88;;;7.21;100.00
20630;BME280;17386;43.846;25.950;2023-03-20T00:35:23;101627.44;;;7.19;100.00
20630;BME280;17386;43.846;25.950;2023-03-20T00:37:50;101628.34;;;7.16;100.00
20630;BME280;17386;43.846;25.950;2023-03-20T00:40:16;101627.47;;;7.16;100.00
20630;BME280;17386;43.846;25.950;2023-03-20T00:42:43;101626.59;;;7.15;100.00
20630;BME280;17386;43.846;25.950;2023-03-20T00:45:13;101624.88;;;7.09;100.00
20630;BME280;17386;43.846;25.950;2023-03-20T00:47:40;101621.38;;;7.03;100.00
20630;BME280;17386;43.846;25.950;2023-03-20T00:50:14;101616.97;;;7.03;100.00
20630;BME280;17386;43.846;25.950;2023-03-20T00:52:40;101620.53;;;7.01;100.00
20630;BME280;17386;43.846;25.950;2023-03-20T00:55:05;101617.03;;;6.96;100.00
20630;BME280;17386;43.846;25.950;2023-03-20T00:57:52;101609.09;;;6.96;100.00
20630;BME280;17386;43.846;25.950;2023-03-20T01:00:24;101615.25;;;6.96;100.00
20630;BME280;17386;43.846;25.950;2023-03-20T01:02:53;101610.94;;;6.88;100.00
20630;BME280;17386;43.846;25.950;2023-03-20T01:05:20;101607.47;;;6.79;100.00
20630;BME280;17386;43.846;25.950;2023-03-20T01:07:46;101609.19;;;6.83;100.00
20630;BME280;17386;43.846;25.950;2023-03-20T01:10:12;101613.59;;;6.83;100.00
20630;BME280;17386;43.846;25.950;2023-03-20T01:12:42;101608.31;;;6.78;100.00
20630;BME280;17386;43.846;25.950;2023-03-20T01:15:20;101613.59;;;6.81;100.00
20630;BME280;17386;43.846;25.950;2023-03-20T01:17:46;101612.78;;;6.73;100.00
20630;BME280;17386;43.846;25.950;2023-03-20T01:20:22;101602.19;;;6.75;100.00
20630;BME280;17386;43.846;25.950;2023-03-20T01:22:48;101611.91;;;6.73;100.00
20630;BME280;17386;43.846;25.950;2023-03-20T01:25:14;101612.81;;;6.63;100.00
20630;BME280;17386;43.846;25.950;2023-03-20T01:27:42;101611.06;;;6.63;100.00
20630;BME280;17386;43.846;25.950;2023-03-20T01:30:23;101603.16;;;6.62;100.00
20630;BME280;17386;43.846;25.950;2023-03-20T01:32:50;101600.50;;;6.62;100.00
20630;BME280;17386;43.846;25.950;2023-03-20T01:35:20;101602.34;;;6.53;100.00
20630;BME280;17386;43.846;25.950;2023-03-20T01:37:46;101601.41;;;6.61;100.00
20630;BME280;17386;43.846;25.950;2023-03-20T01:40:22;101601.38;;;6.64;100.00
20630;BME280;17386;43.846;25.950;2023-03-20T01:42:51;101601.41;;;6.57;100.00
20630;BME280;17386;43.846;25.950;2023-03-20T01:45:21;101600.50;;;6.62;100.00
20630;BME280;17386;43.846;25.950;2023-03-20T01:47:47;101597.88;;;6.62;100.00
20630;BME280;17386;43.846;25.950;2023-03-20T01:50:42;101603.16;;;6.62;100.00
20630;BME280;17386;43.846;25.950;2023-03-20T01:53:15;101602.34;;;6.52;100.00
20630;BME280;17386;43.846;25.950;2023-03-20T01:55:42;101595.31;;;6.48;100.00
20630;BME280;17386;43.846;25.950;2023-03-20T01:58:14;101593.53;;;6.50;100.00
20630;BME280;17386;43.846;25.950;2023-03-20T02:00:42;101596.19;;;6.53;100.00
20630;BME280;17386;43.846;25.950;2023-03-20T02:03:07;101595.31;;;6.48;100.00
20630;BME280;17386;43.846;25.950;2023-03-20T02:05:34;101600.59;;;6.46;100.00
20630;BME280;17386;43.846;25.950;2023-03-20T02:08:17;101599.69;;;6.49;100.00
20630;BME280;17386;43.846;25.950;2023-03-20T02:10:45;101597.06;;;6.47;100.00
20630;BME280;17386;43.846;25.950;2023-03-20T02:13:12;101599.72;;;6.46;100.00
20630;BME280;17386;43.846;25.950;2023-03-20T02:16:05;101593.53;;;6.48;100.00
20630;BME280;17386;43.846;25.950;2023-03-20T02:18:34;101593.53;;;6.50;100.00
20630;BME280;17386;43.846;25.950;2023-03-20T02:29:26;101603.22;;;6.48;100.00
20630;BME280;17386;43.846;25.950;2023-03-20T02:32:24;101598.84;;;6.44;100.00
20630;BME280;17386;43.846;25.950;2023-03-20T02:41:00;101600.63;;;6.40;100.00
20630;BME280;17386;43.846;25.950;2023-03-20T02:46:32;101598.00;;;6.39;100.00
20630;BME280;17386;43.846;25.950;2023-03-20T02:49:08;101597.97;;;6.42;100.00
20630;BME280;17386;43.846;25.950;2023-03-20T02:51:42;101593.56;;;6.42;100.00
20630;BME280;17386;43.846;25.950;2023-03-20T03:02:13;101586.56;;;6.37;100.00
20630;BME280;17386;43.846;25.950;2023-03-20T03:04:47;101592.75;;;6.34;100.00
20630;BME280;17386;43.846;25.950;2023-03-20T03:07:15;101583.09;;;6.32;100.00
20630;BME280;17386;43.846;25.950;2023-03-20T03:09:49;101590.09;;;6.36;100.00
20630;BME280;17386;43.846;25.950;2023-03-20T03:12:19;101583.03;;;6.39;100.00
20630;BME280;17386;43.846;25.950;2023-03-20T03:14:54;101581.25;;;6.41;100.00
20630;BME280;17386;43.846;25.950;2023-03-20T03:17:23;101577.75;;;6.41;100.00
20630;BME280;17386;43.846;25.950;2023-03-20T03:19:54;101582.16;;;6.40;100.00
20630;BME280;17386;43.846;25.950;2023-03-20T03:22:22;101570.75;;;6.35;100.00
20630;BME280;17386;43.846;25.950;2023-03-20T03:24:51;101582.19;;;6.39;100.00
20630;BME280;17386;43.846;25.950;2023-03-20T03:27:23;101569.03;;;6.22;100.00
20630;BME280;17386;43.846;25.950;2023-03-20T03:30:11;101578.69;;;6.32;100.00
20630;BME280;17386;43.846;25.950;2023-03-20T03:32:45;101577.78;;;6.33;100.00
20630;BME280;17386;43.846;25.950;2023-03-20T03:35:17;101580.44;;;6.32;100.00
20630;BME280;17386;43.846;25.950;2023-03-20T03:38:08;101576.91;;;6.34;100.00
20630;BME280;17386;43.846;25.950;2023-03-20T03:43:13;101584.84;;;6.33;100.00
20630;BME280;17386;43.846;25.950;2023-03-20T03:45:53;101578.66;;;6.35;100.00
20630;BME280;17386;43.846;25.950;2023-03-20T03:48:27;101573.41;;;6.34;100.00
20630;BME280;17386;43.846;25.950;2023-03-20T03:50:59;101581.31;;;6.34;100.00
20630;BME280;17386;43.846;25.950;2023-03-20T03:53:39;101591.00;;;6.33;100.00
20630;BME280;17386;43.846;25.950;2023-03-20T03:56:10;101576.91;;;6.31;100.00
20630;BME280;17386;43.846;25.950;2023-03-20T03:58:46;101585.72;;;6.32;100.00
20630;BME280;17386;43.846;25.950;2023-03-20T04:01:13;101580.44;;;6.30;100.00
20630;BME280;17386;43.846;25.950;2023-03-20T04:03:48;101581.31;;;6.34;100.00
20630;BME280;17386;43.846;25.950;2023-03-20T04:06:15;101583.06;;;6.33;100.00
20630;BME280;17386;43.846;25.950;2023-03-20T04:08:42;101585.72;;;6.33;100.00
20630;BME280;17386;43.846;25.950;2023-03-20T04:11:16;101571.63;;;6.36;100.00
20630;BME280;17386;43.846;25.950;2023-03-20T04:13:42;101578.63;;;6.37;100.00
20630;BME280;17386;43.846;25.950;2023-03-20T04:16:12;101576.88;;;6.37;100.00
20630;BME280;17386;43.846;25.950;2023-03-20T04:18:40;101580.44;;;6.33;100.00
20630;BME280;17386;43.846;25.950;2023-03-20T04:21:06;101582.19;;;6.33;100.00
20630;BME280;17386;43.846;25.950;2023-03-20T04:23:32;101585.66;;;6.38;100.00
20630;BME280;17386;43.846;25.950;2023-03-20T04:25:58;101590.09;;;6.36;100.00
20630;BME280;17386;43.846;25.950;2023-03-20T04:28:23;101596.28;;;6.32;100.00
20630;BME280;17386;43.846;25.950;2023-03-20T04:30:56;101595.38;;;6.29;100.00
20630;BME280;17386;43.846;25.950;2023-03-20T04:33:23;101594.56;;;6.17;100.00
20630;BME280;17386;43.846;25.950;2023-03-20T04:35:49;101596.38;;;6.12;100.00
20630;BME280;17386;43.846;25.950;2023-03-20T04:38:15;101598.09;;;6.14;100.00
20630;BME280;17386;43.846;25.950;2023-03-20T04:40:42;101590.22;;;6.03;100.00
20630;BME280;17386;43.846;25.950;2023-03-20T04:43:07;101593.78;;;5.92;100.00
20630;BME280;17386;43.846;25.950;2023-03-20T04:45:33;101599.91;;;6.01;100.00
20630;BME280;17386;43.846;25.950;2023-03-20T04:47:58;101592.84;;;6.08;100.00
20630;BME280;17386;43.846;25.950;2023-03-20T04:50:23;101592.00;;;6.05;100.00
20630;BME280;17386;43.846;25.950;2023-03-20T04:52:49;101592.84;;;6.13;100.00
20630;BME280;17386;43.846;25.950;2023-03-20T04:55:15;101599.84;;;6.18;100.00
20630;BME280;17386;43.846;25.950;2023-03-20T04:57:40;101612.16;;;6.21;100.00
20630;BME280;17386;43.846;25.950;2023-03-20T05:00:06;101608.63;;;6.17;100.00
20630;BME280;17386;43.846;25.950;2023-03-20T05:02:32;101602.47;;;6.23;100.00
20630;BME280;17386;43.846;25.950;2023-03-20T05:04:57;101611.25;;;6.25;100.00
20630;BME280;17386;43.846;25.950;2023-03-20T05:07:22;101621.81;;;6.26;100.00
20630;BME280;17386;43.846;25.950;2023-03-20T05:09:48;101629.75;;;6.16;100.00
20630;BME280;17386;43.846;25.950;2023-03-20T05:12:13;101628.88;;;6.14;100.00
20630;BME280;17386;43.846;25.950;2023-03-20T05:14:38;101628.00;;;6.18;100.00
20630;BME280;17386;43.846;25.950;2023-03-20T05:17:04;101628.81;;;6.24;100.00
20630;BME280;17386;43.846;25.950;2023-03-20T05:19:30;101630.59;;;6.24;100.00
20630;BME280;17386;43.846;25.950;2023-03-20T05:21:55;101634.97;;;6.29;100.00
20630;BME280;17386;43.846;25.950;2023-03-20T05:24:21;101644.59;;;6.38;100.00
20630;BME280;17386;43.846;25.950;2023-03-20T05:26:46;101633.22;;;6.33;100.00
20630;BME280;17386;43.846;25.950;2023-03-20T05:29:12;101639.34;;;6.40;100.00
20630;BME280;17386;43.846;25.950;2023-03-20T05:31:37;101646.31;;;6.59;100.00
20630;BME280;17386;43.846;25.950;2023-03-20T05:34:03;101634.75;;;6.77;100.00
20630;BME280;17386;43.846;25.950;2023-03-20T05:36:29;101637.31;;;6.94;100.00
20630;BME280;17386;43.846;25.950;2023-03-20T05:38:55;101645.97;;;7.11;100.00
20630;BME280;17386;43.846;25.950;2023-03-20T05:41:21;101644.06;;;7.31;100.00
20630;BME280;17386;43.846;25.950;2023-03-20T05:43:46;101657.16;;;7.48;100.00
20630;BME280;17386;43.846;25.950;2023-03-20T05:46:12;101657.00;;;7.65;100.00
20630;BME280;17386;43.846;25.950;2023-03-20T05:48:37;101641.25;;;7.56;100.00
20630;BME280;17386;43.846;25.950;2023-03-20T05:51:03;101657.75;;;7.82;100.00
20630;BME280;17386;43.846;25.950;2023-03-20T05:53:28;101667.16;;;8.08;100.00
20630;BME280;17386;43.846;25.950;2023-03-20T05:55:54;101659.88;;;8.31;100.00
20630;BME280;17386;43.846;25.950;2023-03-20T05:58:19;101657.84;;;8.55;100.00
20630;BME280;17386;43.846;25.950;2023-03-20T06:00:45;101648.69;;;8.79;100.00
20630;BME280;17386;43.846;25.950;2023-03-20T06:03:10;101651.09;;;8.95;100.00
20630;BME280;17386;43.846;25.950;2023-03-20T06:05:36;101653.47;;;9.12;99.75
20630;BME280;17386;43.846;25.950;2023-03-20T06:08:02;101651.53;;;9.26;99.61
20630;BME280;17386;43.846;25.950;2023-03-20T06:10:28;101648.44;;;9.52;98.47
20630;BME280;17386;43.846;25.950;2023-03-20T06:12:55;101649.78;;;9.76;96.92
20630;BME280;17386;43.846;25.950;2023-03-20T06:15:21;101641.47;;;9.96;95.75
20630;BME280;17386;43.846;25.950;2023-03-20T06:17:47;101631.34;;;10.17;94.96
20630;BME280;17386;43.846;25.950;2023-03-20T06:20:12;101631.84;;;10.37;93.52
20630;BME280;17386;43.846;25.950;2023-03-20T06:22:38;101634.31;;;10.46;91.49
20630;BME280;17386;43.846;25.950;2023-03-20T06:25:04;101635.72;;;10.64;90.74
20630;BME280;17386;43.846;25.950;2023-03-20T06:27:30;101634.50;;;10.77;89.91
20630;BME280;17386;43.846;25.950;2023-03-20T06:29:56;101643.69;;;10.64;90.24
20630;BME280;17386;43.846;25.950;2023-03-20T06:32:21;101642.34;;;10.43;92.39
20630;BME280;17386;43.846;25.950;2023-03-20T06:34:47;101655.00;;;10.29;93.23
20630;BME280;17386;43.846;25.950;2023-03-20T06:37:12;101653.72;;;10.02;94.00
20630;BME280;17386;43.846;25.950;2023-03-20T06:39:38;101662.41;;;10.11;94.50
20630;BME280;17386;43.846;25.950;2023-03-20T06:42:04;101649.03;;;10.18;94.61
20630;BME280;17386;43.846;25.950;2023-03-20T06:44:29;101651.75;;;10.13;94.76
20630;BME280;17386;43.846;25.950;2023-03-20T06:46:54;101654.38;;;10.14;93.35
20630;BME280;17386;43.846;25.950;2023-03-20T06:49:20;101654.25;;;10.21;93.21
20630;BME280;17386;43.846;25.950;2023-03-20T06:51:46;101648.50;;;10.45;92.57
20630;BME280;17386;43.846;25.950;2023-03-20T06:54:12;101652.97;;;10.85;91.38
20630;BME280;17386;43.846;25.950;2023-03-20T06:56:38;101660.31;;;11.11;89.90
20630;BME280;17386;43.846;25.950;2023-03-20T06:59:03;101666.09;;;11.30;88.29
20630;BME280;17386;43.846;25.950;2023-03-20T07:01:28;101665.66;;;11.11;87.67
20630;BME280;17386;43.846;25.950;2023-03-20T07:03:54;101654.44;;;10.98;88.47
20630;BME280;17386;43.846;25.950;2023-03-20T07:06:20;101665.38;;;10.84;88.69
20630;BME280;17386;43.846;25.950;2023-03-20T07:08:45;101649.56;;;10.77;89.52
20630;BME280;17386;43.846;25.950;2023-03-20T07:11:11;101654.44;;;10.98;88.94
20630;BME280;17386;43.846;25.950;2023-03-20T07:13:36;101655.28;;;11.00;88.04
20630;BME280;17386;43.846;25.950;2023-03-20T07:16:03;101659.25;;;11.19;87.16
20630;BME280;17386;43.846;25.950;2023-03-20T07:18:29;101651.16;;;11.24;86.98
20630;BME280;17386;43.846;25.950;2023-03-20T07:20:59;101653.47;;;11.39;85.66
20630;BME280;17386;43.846;25.950;2023-03-20T07:23:26;101657.88;;;11.40;84.40
20630;BME280;17386;43.846;25.950;2023-03-20T07:25:52;101645.81;;;11.61;84.19
20630;BME280;17386;43.846;25.950;2023-03-20T07:28:17;101655.50;;;11.64;83.40
20630;BME280;17386;43.846;25.950;2023-03-20T07:30:43;101653.28;;;11.47;84.35
20630;BME280;17386;43.846;25.950;2023-03-20T07:33:08;101651.41;;;11.50;84.32
20630;BME280;17386;43.846;25.950;2023-03-20T07:35:34;101642.53;;;11.50;84.94
20630;BME280;17386;43.846;25.950;2023-03-20T07:38:00;101634.66;;;11.47;84.59
20630;BME280;17386;43.846;25.950;2023-03-20T07:40:26;101643.81;;;11.69;84.01
20630;BME280;17386;43.846;25.950;2023-03-20T07:42:51;101645.31;;;11.79;83.65
20630;BME280;17386;43.846;25.950;2023-03-20T07:45:17;101649.78;;;11.81;83.39
20630;BME280;17386;43.846;25.950;2023-03-20T07:47:44;101650.84;;;11.72;83.92
20630;BME280;17386;43.846;25.950;2023-03-20T07:50:11;101652.31;;;11.49;85.05
20630;BME280;17386;43.846;25.950;2023-03-20T07:52:36;101655.22;;;11.40;86.09
20630;BME280;17386;43.846;25.950;2023-03-20T07:55:02;101653.13;;;11.51;86.13
20630;BME280;17386;43.846;25.950;2023-03-20T07:57:27;101653.91;;;11.57;85.52
20630;BME280;17386;43.846;25.950;2023-03-20T07:59:53;101657.81;;;11.77;85.48
20630;BME280;17386;43.846;25.950;2023-03-20T08:02:19;101650.63;;;11.79;83.98
20630;BME280;17386;43.846;25.950;2023-03-20T08:04:44;101650.31;;;11.93;84.14
20630;BME280;17386;43.846;25.950;2023-03-20T08:07:10;101656.22;;;12.04;83.50
20630;BME280;17386;43.846;25.950;2023-03-20T08:09:36;101664.31;;;12.01;83.89
20630;BME280;17386;43.846;25.950;2023-03-20T08:12:02;101662.09;;;12.17;83.50
20630;BME280;17386;43.846;25.950;2023-03-20T08:14:27;101662.88;;;12.21;83.83
20630;BME280;17386;43.846;25.950;2023-03-20T08:16:53;101663.88;;;12.48;82.99
20630;BME280;17386;43.846;25.950;2023-03-20T08:19:18;101660.69;;;12.66;81.79
20630;BME280;17386;43.846;25.950;2023-03-20T08:21:43;101661.50;;;12.68;81.68
20630;BME280;17386;43.846;25.950;2023-03-20T08:24:09;101657.03;;;12.70;81.02
20630;BME280;17386;43.846;25.950;2023-03-20T08:26:35;101664.75;;;12.79;80.93
20630;BME280;17386;43.846;25.950;2023-03-20T08:29:01;101667.59;;;12.73;78.42
20630;BME280;17386;43.846;25.950;2023-03-20T08:31:26;101668.16;;;12.84;78.65
20630;BME280;17386;43.846;25.950;2023-03-20T08:33:52;101659.03;;;12.92;79.34
20630;BME280;17386;43.846;25.950;2023-03-20T08:36:19;101656.78;;;12.78;79.41
20630;BME280;17386;43.846;25.950;2023-03-20T08:38:46;101666.31;;;12.86;79.43
20630;BME280;17386;43.846;25.950;2023-03-20T08:41:12;101661.22;;;13.07;79.25
20630;BME280;17386;43.846;25.950;2023-03-20T08:43:37;101667.16;;;13.45;78.46
20630;BME280;17386;43.846;25.950;2023-03-20T08:46:03;101662.47;;;13.78;75.22
20630;BME280;17386;43.846;25.950;2023-03-20T08:48:29;101661.44;;;14.08;74.37
20630;BME280;17386;43.846;25.950;2023-03-20T08:50:55;101665.59;;;14.40;72.53
20630;BME280;17386;43.846;25.950;2023-03-20T08:53:20;101658.22;;;14.48;71.26
20630;BME280;17386;43.846;25.950;2023-03-20T08:55:49;101657.09;;;14.29;71.18
20630;BME280;17386;43.846;25.950;2023-03-20T08:58:16;101654.94;;;14.15;71.33
20630;BME280;17386;43.846;25.950;2023-03-20T09:00:42;101651.31;;;13.91;71.53
20630;BME280;17386;43.846;25.950;2023-03-20T09:03:15;101649.47;;;14.18;71.14
20630;BME280;17386;43.846;25.950;2023-03-20T09:05:48;101642.03;;;14.52;70.66
20630;BME280;17386;43.846;25.950;2023-03-20T09:08:15;101648.00;;;14.82;70.71
20630;BME280;17386;43.846;25.950;2023-03-20T09:10:41;101646.94;;;15.31;68.83
20630;BME280;17386;43.846;25.950;2023-03-20T09:13:06;101636.94;;;15.56;67.91
20630;BME280;17386;43.846;25.950;2023-03-20T09:15:33;101644.56;;;15.88;65.79
20630;BME280;17386;43.846;25.950;2023-03-20T09:17:59;101639.41;;;15.83;66.73
20630;BME280;17386;43.846;25.950;2023-03-20T09:20:24;101631.53;;;16.00;65.51
20630;BME280;17386;43.846;25.950;2023-03-20T09:22:53;101633.72;;;15.91;65.98
20630;BME280;17386;43.846;25.950;2023-03-20T09:25:18;101636.94;;;15.78;66.38
20630;BME280;17386;43.846;25.950;2023-03-20T09:27:44;101626.94;;;16.02;66.47
20630;BME280;17386;43.846;25.950;2023-03-20T09:30:11;101626.41;;;16.14;64.16
20630;BME280;17386;43.846;25.950;2023-03-20T09:32:36;101624.09;;;16.26;64.32
20630;BME280;17386;43.846;25.950;2023-03-20T09:35:03;101619.66;;;16.06;63.37
20630;BME280;17386;43.846;25.950;2023-03-20T09:37:28;101608.31;;;16.20;61.09
20630;BME280;17386;43.846;25.950;2023-03-20T09:39:54;101608.25;;;16.40;59.62
20630;BME280;17386;43.846;25.950;2023-03-20T09:47:44;101607.94;;;17.04;58.65
20630;BME280;17386;43.846;25.950;2023-03-20T09:50:38;101592.38;;;17.11;58.57
20630;BME280;17386;43.846;25.950;2023-03-20T09:53:10;101588.94;;;17.26;58.18
20630;BME280;17386;43.846;25.950;2023-03-20T09:55:39;101597.59;;;17.50;57.90
20630;BME280;17386;43.846;25.950;2023-03-20T09:58:30;101589.91;;;17.60;57.75
20630;BME280;17386;43.846;25.950;2023-03-20T10:00:59;101590.22;;;17.36;58.83
20630;BME280;17386;43.846;25.950;2023-03-20T10:03:34;101595.03;;;17.47;58.46
20630;BME280;17386;43.846;25.950;2023-03-20T10:06:05;101586.97;;;17.47;59.31
20630;BME280;17386;43.846;25.950;2023-03-20T10:08:34;101583.66;;;17.42;58.81
20630;BME280;17386;43.846;25.950;2023-03-20T10:16:57;101570.69;;;18.51;58.96
20630;BME280;17386;43.846;25.950;2023-03-20T10:24:47;101562.50;;;20.06;53.92
20630;BME280;17386;43.846;25.950;2023-03-20T10:27:25;101561.22;;;19.83;52.83
20630;BME280;17386;43.846;25.950;2023-03-20T10:40:47;101544.44;;;21.32;48.93
20630;BME280;17386;43.846;25.950;2023-03-20T10:43:17;101542.53;;;21.59;48.02
20630;BME280;17386;43.846;25.950;2023-03-20T10:46:13;101542.53;;;21.59;47.44
20630;BME280;17386;43.846;25.950;2023-03-20T10:48:51;101540.41;;;21.77;47.11
20630;BME280;17386;43.846;25.950;2023-03-20T10:51:23;101539.91;;;21.45;47.03
20630;BME280;17386;43.846;25.950;2023-03-20T10:53:55;101536.06;;;21.22;48.21
20630;BME280;17386;43.846;25.950;2023-03-20T10:56:46;101534.88;;;21.66;47.44
20630;BME280;17386;43.846;25.950;2023-03-20T10:59:25;101524.19;;;21.77;46.74
20630;BME280;17386;43.846;25.950;2023-03-20T11:01:52;101526.06;;;21.37;45.55
20630;BME280;17386;43.846;25.950;2023-03-20T11:04:18;101509.34;;;21.70;45.22
20630;BME280;17386;43.846;25.950;2023-03-20T11:06:54;101512.69;;;21.08;44.02
20630;BME280;17386;43.846;25.950;2023-03-20T11:09:23;101507.75;;;21.27;43.63
20630;BME280;17386;43.846;25.950;2023-03-20T11:11:55;101497.41;;;21.34;42.85
20630;BME280;17386;43.846;25.950;2023-03-20T11:14:23;101499.69;;;21.00;42.44
20630;BME280;17386;43.846;25.950;2023-03-20T11:16:53;101495.72;;;21.19;42.50
20630;BME280;17386;43.846;25.950;2023-03-20T11:19:21;101492.53;;;20.99;43.90
20630;BME280;17386;43.846;25.950;2023-03-20T11:21:52;101480.44;;;21.45;43.54
20630;BME280;17386;43.846;25.950;2023-03-20T11:27:13;101477.97;;;21.54;41.47
20630;BME280;17386;43.846;25.950;2023-03-20T11:29:41;101467.88;;;21.95;40.04
20630;BME280;17386;43.846;25.950;2023-03-20T11:34:56;101474.28;;;21.68;40.43
20630;BME280;17386;43.846;25.950;2023-03-20T11:37:34;101465.47;;;22.28;41.12
20630;BME280;17386;43.846;25.950;2023-03-20T11:40:14;101457.59;;;22.00;42.18
20630;BME280;17386;43.846;25.950;2023-03-20T11:43:02;101464.13;;;21.59;42.86
20630;BME280;17386;43.846;25.950;2023-03-20T11:45:45;101466.16;;;20.90;42.31
20630;BME280;17386;43.846;25.950;2023-03-20T11:48:20;101458.63;;;20.95;42.09
20630;BME280;17386;43.846;25.950;2023-03-20T11:50:56;101463.41;;;20.36;42.82
20630;BME280;17386;43.846;25.950;2023-03-20T11:53:38;101455.16;;;20.93;41.85
20630;BME280;17386;43.846;25.950;2023-03-20T11:58:31;101444.56;;;21.55;42.21
20630;BME280;17386;43.846;25.950;2023-03-20T12:00:58;101441.81;;;21.81;41.33
20630;BME280;17386;43.846;25.950;2023-03-20T12:06:21;101421.59;;;22.36;41.35
20630;BME280;17386;43.846;25.950;2023-03-20T12:11:52;101409.81;;;21.75;42.75
20630;BME280;17386;43.846;25.950;2023-03-20T12:20:03;101408.44;;;21.31;43.50
20630;BME280;17386;43.846;25.950;2023-03-20T12:22:34;101403.78;;;21.46;44.51
20630;BME280;17386;43.846;25.950;2023-03-20T12:25:19;101397.91;;;21.90;43.73
20630;BME280;17386;43.846;25.950;2023-03-20T12:27:52;101388.84;;;21.78;42.94
20630;BME280;17386;43.846;25.950;2023-03-20T12:36:03;101372.19;;;22.21;41.74
20630;BME280;17386;43.846;25.950;2023-03-20T12:38:31;101375.78;;;22.09;42.39
20630;BME280;17386;43.846;25.950;2023-03-20T12:41:11;101375.25;;;22.17;42.23
20630;BME280;17386;43.846;25.950;2023-03-20T12:46:28;101369.22;;;21.88;42.82
20630;BME280;17386;43.846;25.950;2023-03-20T12:55:04;101368.66;;;21.46;44.24
20630;BME280;17386;43.846;25.950;2023-03-20T12:57:23;101356.81;;;22.22;42.75
20630;BME280;17386;43.846;25.950;2023-03-20T13:00:15;101360.94;;;22.86;41.36
20630;BME280;17386;43.846;25.950;2023-03-20T13:02:53;101352.78;;;22.51;41.70
20630;BME280;17386;43.846;25.950;2023-03-20T13:05:24;101357.09;;;21.93;42.32
20630;BME280;17386;43.846;25.950;2023-03-20T13:21:55;101348.75;;;20.29;47.31
20630;BME280;17386;43.846;25.950;2023-03-20T13:37:47;101339.00;;;19.16;50.61
20630;BME280;17386;43.846;25.950;2023-03-20T13:40:24;101329.59;;;19.23;50.86
20630;BME280;17386;43.846;25.950;2023-03-20T13:43:20;101326.88;;;19.37;50.64
20630;BME280;17386;43.846;25.950;2023-03-20T13:45:51;101328.00;;;19.47;49.88
20630;BME280;17386;43.846;25.950;2023-03-20T13:48:33;101308.50;;;19.58;49.35
20630;BME280;17386;43.846;25.950;2023-03-20T13:51:07;101321.03;;;19.59;48.40
20630;BME280;17386;43.846;25.950;2023-03-20T14:01:22;101302.75;;;19.35;48.72
20630;BME280;17386;43.846;25.950;2023-03-20T14:03:50;101304.84;;;19.30;49.01
20630;BME280;17386;43.846;25.950;2023-03-20T14:08:54;101298.50;;;19.17;48.95
20630;BME280;17386;43.846;25.950;2023-03-20T14:13:54;101302.72;;;19.21;50.06
20630;BME280;17386;43.846;25.950;2023-03-20T14:16:20;101301.78;;;19.08;49.58
20630;BME280;17386;43.846;25.950;2023-03-20T14:18:48;101288.78;;;19.14;49.61
20630;BME280;17386;43.846;25.950;2023-03-20T14:21:18;101286.97;;;19.15;49.59
20630;BME280;17386;43.846;25.950;2023-03-20T14:23:59;101292.16;;;19.18;49.72
20630;BME280;17386;43.846;25.950;2023-03-20T14:26:28;101276.56;;;19.23;50.28
20630;BME280;17386;43.846;25.950;2023-03-20T14:31:37;101267.06;;;19.03;52.29
20630;BME280;17386;43.846;25.950;2023-03-20T14:53:07;101255.09;;;18.93;50.87
20630;BME280;17386;43.846;25.950;2023-03-20T15:01:21;101261.47;;;18.92;52.43
20630;BME280;17386;43.846;25.950;2023-03-20T15:04:07;101262.44;;;18.91;52.62
20630;BME280;17386;43.846;25.950;2023-03-20T15:06:34;101255.03;;;18.95;52.64
20630;BME280;17386;43.846;25.950;2023-03-20T15:09:08;101256.56;;;18.84;52.59
20630;BME280;17386;43.846;25.950;2023-03-20T15:11:35;101261.19;;;18.82;52.97
20630;BME280;17386;43.846;25.950;2023-03-20T15:14:05;101250.78;;;18.76;52.52
20630;BME280;17386;43.846;25.950;2023-03-20T15:16:33;101251.94;;;18.72;53.18
20630;BME280;17386;43.846;25.950;2023-03-20T15:18:59;101256.97;;;18.63;53.36
20630;BME280;17386;43.846;25.950;2023-03-20T15:21:32;101256.97;;;18.63;53.70
20630;BME280;17386;43.846;25.950;2023-03-20T15:23:59;101252.06;;;18.55;53.64
20630;BME280;17386;43.846;25.950;2023-03-20T15:26:27;101256.09;;;18.48;53.99
20630;BME280;17386;43.846;25.950;2023-03-20T15:29:05;101246.19;;;18.48;53.87